C6STR KSAV-MYGF
Flight info
| Callsign | C6STR |
|---|---|
| Flight time | N/A |
| Altitude | 43000 |
| Route | GIPPL WOPNR Q97 DEBRL/N0495F450 Q97 EBAYY FOMGU Y624 ZFP |
| Aircraft | GLF6/M-SBDE2E3FGHIJ4J5M1RWXY/LB1D1 |
Departure
| Time | 2026-04-28 16:49 |
|---|---|
| Airport | Savannah Hilton Head International Airport (KSAV) |
Arrival
| Time | N/A |
|---|---|
| Airport | Grand Bahama International Airport (MYGF) |
| Time | Latitude | Longitude | Altitude | Speed | Heading |
|---|---|---|---|---|---|
| 2026-04-28 16:32 | 32.13142 | -81.18921 | 48 ft | 0 kts | 90° |
| 2026-04-28 16:45 | 32.13142 | -81.18919 | 48 ft | 1 kts | 90° |
| 2026-04-28 16:45 | 32.13142 | -81.18900 | 48 ft | 3 kts | 90° |
| 2026-04-28 16:45 | 32.13147 | -81.18864 | 48 ft | 5 kts | 65° |
| 2026-04-28 16:45 | 32.13179 | -81.18833 | 48 ft | 7 kts | 347° |
| 2026-04-28 16:46 | 32.13219 | -81.18877 | 48 ft | 8 kts | 313° |
| 2026-04-28 16:46 | 32.13237 | -81.18946 | 48 ft | 10 kts | 237° |
| 2026-04-28 16:46 | 32.13183 | -81.19014 | 48 ft | 12 kts | 225° |
| 2026-04-28 16:46 | 32.13122 | -81.19087 | 50 ft | 12 kts | 226° |
| 2026-04-28 16:47 | 32.13060 | -81.19166 | 51 ft | 13 kts | 226° |
| 2026-04-28 16:47 | 32.12991 | -81.19253 | 51 ft | 15 kts | 227° |
| 2026-04-28 16:47 | 32.12942 | -81.19250 | 51 ft | 10 kts | 91° |
| 2026-04-28 16:47 | 32.12946 | -81.19158 | 51 ft | 12 kts | 85° |
| 2026-04-28 16:48 | 32.12949 | -81.19041 | 49 ft | 15 kts | 91° |
| 2026-04-28 16:48 | 32.12947 | -81.18926 | 48 ft | 9 kts | 90° |
| 2026-04-28 16:48 | 32.12927 | -81.18868 | 48 ft | 8 kts | 174° |
| 2026-04-28 16:48 | 32.12848 | -81.18907 | 48 ft | 23 kts | 264° |
| 2026-04-28 16:49 | 32.12850 | -81.19357 | 52 ft | 113 kts | 270° |
| 2026-04-28 16:49 | 32.12813 | -81.20665 | 522 ft | 194 kts | 274° |
| 2026-04-28 16:49 | 32.12820 | -81.22173 | 2091 ft | 171 kts | 275° |
| 2026-04-28 16:49 | 32.12882 | -81.23669 | 3208 ft | 210 kts | 274° |
| 2026-04-28 16:50 | 32.12908 | -81.25522 | 4573 ft | 252 kts | 264° |
| 2026-04-28 16:50 | 32.12125 | -81.27415 | 5909 ft | 277 kts | 227° |
| 2026-04-28 16:50 | 32.10501 | -81.28453 | 7587 ft | 285 kts | 194° |
| 2026-04-28 16:50 | 32.08632 | -81.28508 | 9211 ft | 289 kts | 179° |
| 2026-04-28 16:51 | 32.06586 | -81.28246 | 10432 ft | 307 kts | 175° |
| 2026-04-28 16:51 | 32.04360 | -81.27894 | 10894 ft | 350 kts | 175° |
| 2026-04-28 16:51 | 32.01844 | -81.27465 | 11580 ft | 378 kts | 174° |
| 2026-04-28 16:51 | 31.99357 | -81.27030 | 13472 ft | 367 kts | 174° |
| 2026-04-28 16:52 | 31.96986 | -81.26624 | 14490 ft | 380 kts | 174° |
| 2026-04-28 16:52 | 31.94335 | -81.26164 | 15521 ft | 393 kts | 173° |
| 2026-04-28 16:52 | 31.91661 | -81.25699 | 16976 ft | 393 kts | 174° |
| 2026-04-28 16:52 | 31.88961 | -81.25233 | 18022 ft | 405 kts | 174° |
| 2026-04-28 16:53 | 31.86167 | -81.24749 | 19261 ft | 411 kts | 174° |
| 2026-04-28 16:53 | 31.83353 | -81.24262 | 20471 ft | 418 kts | 174° |
| 2026-04-28 16:53 | 31.80484 | -81.23767 | 21565 ft | 427 kts | 174° |
| 2026-04-28 16:53 | 31.77532 | -81.23257 | 22775 ft | 434 kts | 174° |
| 2026-04-28 16:54 | 31.74581 | -81.22748 | 23892 ft | 441 kts | 174° |
| 2026-04-28 16:54 | 31.71538 | -81.22224 | 24908 ft | 450 kts | 173° |
| 2026-04-28 16:54 | 31.68465 | -81.21695 | 25973 ft | 455 kts | 173° |
| 2026-04-28 16:54 | 31.66391 | -81.21338 | 26635 ft | 460 kts | 173° |
| 2026-04-28 16:55 | 31.62131 | -81.20605 | 27930 ft | 468 kts | 173° |
| 2026-04-28 16:55 | 31.58923 | -81.20053 | 28832 ft | 475 kts | 172° |
| 2026-04-28 16:55 | 31.55667 | -81.19493 | 29715 ft | 480 kts | 172° |
| 2026-04-28 16:55 | 31.52406 | -81.18933 | 30557 ft | 486 kts | 172° |
| 2026-04-28 16:56 | 31.49066 | -81.18359 | 31364 ft | 492 kts | 172° |
| 2026-04-28 16:56 | 31.45692 | -81.17781 | 32334 ft | 493 kts | 172° |
| 2026-04-28 16:56 | 31.42337 | -81.17207 | 33508 ft | 487 kts | 172° |
| 2026-04-28 16:56 | 31.38997 | -81.16636 | 34432 ft | 486 kts | 172° |
| 2026-04-28 16:57 | 31.35690 | -81.16191 | 35393 ft | 483 kts | 175° |
| 2026-04-28 16:57 | 31.32446 | -81.15796 | 36434 ft | 477 kts | 175° |
| 2026-04-28 16:57 | 31.29211 | -81.15404 | 37259 ft | 476 kts | 176° |
| 2026-04-28 16:57 | 31.25918 | -81.15005 | 37902 ft | 479 kts | 176° |
| 2026-04-28 16:58 | 31.22629 | -81.14608 | 38632 ft | 478 kts | 176° |
| 2026-04-28 16:58 | 31.19318 | -81.14208 | 39405 ft | 476 kts | 176° |
| 2026-04-28 16:58 | 31.16032 | -81.13810 | 39939 ft | 480 kts | 177° |
| 2026-04-28 16:58 | 31.12730 | -81.13412 | 40423 ft | 483 kts | 177° |
| 2026-04-28 16:59 | 31.09379 | -81.13007 | 41005 ft | 484 kts | 178° |
| 2026-04-28 16:59 | 31.06037 | -81.12604 | 41555 ft | 486 kts | 178° |
| 2026-04-28 16:59 | 31.02663 | -81.12198 | 42032 ft | 488 kts | 179° |
| 2026-04-28 16:59 | 30.99309 | -81.11794 | 42520 ft | 490 kts | 179° |
| 2026-04-28 17:00 | 30.95918 | -81.11385 | 43019 ft | 492 kts | 179° |
| 2026-04-28 17:00 | 30.92493 | -81.10975 | 43268 ft | 500 kts | 179° |
| 2026-04-28 17:00 | 30.88985 | -81.10557 | 43279 ft | 512 kts | 179° |
| 2026-04-28 17:00 | 30.85408 | -81.10127 | 43291 ft | 524 kts | 179° |
| 2026-04-28 17:01 | 30.81748 | -81.09687 | 43307 ft | 534 kts | 179° |
| 2026-04-28 17:01 | 30.74331 | -81.08797 | 43282 ft | 539 kts | 179° |
| 2026-04-28 17:02 | 30.66927 | -81.07910 | 43254 ft | 537 kts | 179° |
| 2026-04-28 17:02 | 30.59540 | -81.07603 | 43250 ft | 530 kts | 187° |
| 2026-04-28 17:03 | 30.48492 | -81.08256 | 43229 ft | 530 kts | 188° |
| 2026-04-28 17:03 | 30.41130 | -81.08699 | 43229 ft | 530 kts | 188° |
| 2026-04-28 17:04 | 30.30128 | -81.09360 | 43230 ft | 530 kts | 188° |
| 2026-04-28 17:05 | 30.19114 | -81.10020 | 43231 ft | 530 kts | 188° |
| 2026-04-28 17:06 | 30.08082 | -81.10679 | 43231 ft | 529 kts | 188° |
| 2026-04-28 17:06 | 29.97101 | -81.11334 | 43221 ft | 530 kts | 188° |
| 2026-04-28 17:07 | 29.89773 | -81.11771 | 43214 ft | 530 kts | 188° |
| 2026-04-28 17:07 | 29.82436 | -81.12202 | 43204 ft | 530 kts | 187° |
| 2026-04-28 17:08 | 29.75013 | -81.12279 | 43205 ft | 531 kts | 185° |
| 2026-04-28 17:08 | 29.67672 | -81.12315 | 43207 ft | 531 kts | 185° |
| 2026-04-28 17:09 | 29.60283 | -81.12354 | 43208 ft | 531 kts | 185° |
| 2026-04-28 17:09 | 29.52937 | -81.12538 | 43210 ft | 530 kts | 187° |
| 2026-04-28 17:10 | 29.45596 | -81.12815 | 43209 ft | 530 kts | 187° |
| 2026-04-28 17:10 | 29.38240 | -81.13092 | 43209 ft | 530 kts | 187° |
| 2026-04-28 17:11 | 29.30928 | -81.13123 | 43179 ft | 536 kts | 178° |
| 2026-04-28 17:11 | 29.27273 | -81.12272 | 43198 ft | 544 kts | 166° |
| 2026-04-28 17:11 | 29.23701 | -81.10774 | 43235 ft | 547 kts | 162° |
| 2026-04-28 17:12 | 29.16678 | -81.07661 | 43213 ft | 546 kts | 162° |
| 2026-04-28 17:12 | 29.09564 | -81.04523 | 43212 ft | 546 kts | 162° |
| 2026-04-28 17:13 | 29.02511 | -81.01416 | 43214 ft | 545 kts | 162° |
| 2026-04-28 17:13 | 28.95398 | -80.98286 | 43215 ft | 545 kts | 162° |
| 2026-04-28 17:14 | 28.88318 | -80.95177 | 43210 ft | 545 kts | 162° |
| 2026-04-28 17:14 | 28.81264 | -80.92083 | 43208 ft | 545 kts | 162° |
| 2026-04-28 17:15 | 28.74194 | -80.88986 | 43198 ft | 545 kts | 162° |
| 2026-04-28 17:15 | 28.67124 | -80.86001 | 43179 ft | 544 kts | 165° |
| 2026-04-28 17:16 | 28.59957 | -80.83251 | 43165 ft | 545 kts | 165° |
| 2026-04-28 17:16 | 28.52818 | -80.80514 | 43167 ft | 544 kts | 165° |
| 2026-04-28 17:17 | 28.45669 | -80.77778 | 43167 ft | 544 kts | 165° |
| 2026-04-28 17:17 | 28.38512 | -80.75043 | 43167 ft | 544 kts | 165° |
| 2026-04-28 17:18 | 28.31362 | -80.72314 | 43168 ft | 544 kts | 165° |
| 2026-04-28 17:18 | 28.24211 | -80.69588 | 43174 ft | 543 kts | 165° |
| 2026-04-28 17:19 | 28.17084 | -80.66876 | 43180 ft | 543 kts | 165° |
| 2026-04-28 17:19 | 28.09997 | -80.64178 | 43072 ft | 511 kts | 165° |
| 2026-04-28 17:20 | 28.06746 | -80.62944 | 42961 ft | 490 kts | 165° |
| 2026-04-28 17:20 | 28.04596 | -80.62131 | 42899 ft | 489 kts | 165° |
| 2026-04-28 17:20 | 27.97012 | -80.59257 | 42817 ft | 499 kts | 165° |
| 2026-04-28 17:21 | 27.93712 | -80.58008 | 42379 ft | 500 kts | 165° |
| 2026-04-28 17:21 | 27.90452 | -80.56773 | 41841 ft | 497 kts | 164° |
| 2026-04-28 17:21 | 27.87212 | -80.55548 | 41296 ft | 495 kts | 164° |
| 2026-04-28 17:22 | 27.80737 | -80.53101 | 40231 ft | 495 kts | 164° |
| 2026-04-28 17:22 | 27.77474 | -80.51870 | 39691 ft | 494 kts | 164° |
| 2026-04-28 17:22 | 27.74285 | -80.50400 | 39063 ft | 497 kts | 154° |
| 2026-04-28 17:23 | 27.69032 | -80.45431 | 38027 ft | 498 kts | 131° |
| 2026-04-28 17:23 | 27.66728 | -80.42554 | 37475 ft | 497 kts | 131° |
| 2026-04-28 17:23 | 27.64415 | -80.39670 | 36924 ft | 494 kts | 131° |
| 2026-04-28 17:23 | 27.62145 | -80.36845 | 36384 ft | 493 kts | 131° |
| 2026-04-28 17:24 | 27.59893 | -80.34044 | 35847 ft | 493 kts | 131° |
| 2026-04-28 17:24 | 27.57596 | -80.31188 | 35295 ft | 493 kts | 131° |
| 2026-04-28 17:24 | 27.55296 | -80.28332 | 34755 ft | 493 kts | 131° |
| 2026-04-28 17:24 | 27.52980 | -80.25457 | 34209 ft | 494 kts | 131° |
| 2026-04-28 17:25 | 27.50682 | -80.22607 | 33663 ft | 495 kts | 131° |
| 2026-04-28 17:25 | 27.46053 | -80.16869 | 32576 ft | 496 kts | 131° |
| 2026-04-28 17:25 | 27.43724 | -80.13987 | 32025 ft | 497 kts | 131° |
| 2026-04-28 17:26 | 27.41407 | -80.11121 | 31475 ft | 499 kts | 131° |
| 2026-04-28 17:26 | 27.39273 | -80.08072 | 30874 ft | 498 kts | 122° |
| 2026-04-28 17:26 | 27.37442 | -80.04737 | 30374 ft | 495 kts | 117° |
| 2026-04-28 17:26 | 27.35800 | -80.01414 | 29825 ft | 491 kts | 116° |
| 2026-04-28 17:27 | 27.34174 | -79.98064 | 29260 ft | 483 kts | 116° |
| 2026-04-28 17:27 | 27.32584 | -79.94791 | 28713 ft | 477 kts | 116° |
| 2026-04-28 17:27 | 27.31005 | -79.91544 | 28187 ft | 472 kts | 116° |
| 2026-04-28 17:27 | 27.29434 | -79.88316 | 27666 ft | 468 kts | 116° |
| 2026-04-28 17:28 | 27.27876 | -79.85114 | 27149 ft | 463 kts | 116° |
| 2026-04-28 17:28 | 27.24506 | -79.79073 | 26150 ft | 456 kts | 122° |
| 2026-04-28 17:28 | 27.22707 | -79.76122 | 25633 ft | 451 kts | 123° |
| 2026-04-28 17:29 | 27.20937 | -79.73277 | 25141 ft | 446 kts | 123° |